sensor_id;sensor_type;location;lat;lon;timestamp;pressure;altitude;pressure_sealevel;temperature;humidity
69848;BME280;57143;55.940;37.496;2022-07-10T00:00:25;98968.00;;;18.79;81.18
69848;BME280;57143;55.940;37.496;2022-07-10T00:02:53;98961.97;;;18.77;80.96
69848;BME280;57143;55.940;37.496;2022-07-10T00:05:21;98945.53;;;18.72;80.73
69848;BME280;57143;55.940;37.496;2022-07-10T00:07:48;98935.38;;;18.72;80.83
69848;BME280;57143;55.940;37.496;2022-07-10T00:10:16;98943.56;;;18.77;80.89
69848;BME280;57143;55.940;37.496;2022-07-10T00:12:44;98921.66;;;18.72;80.72
69848;BME280;57143;55.940;37.496;2022-07-10T00:15:12;98920.81;;;18.72;81.10
69848;BME280;57143;55.940;37.496;2022-07-10T00:17:39;98903.28;;;18.68;81.15
69848;BME280;57143;55.940;37.496;2022-07-10T00:20:08;98892.13;;;18.59;81.35
69848;BME280;57143;55.940;37.496;2022-07-10T00:22:35;98890.78;;;18.57;81.20
69848;BME280;57143;55.940;37.496;2022-07-10T00:25:04;98899.56;;;18.54;81.58
69848;BME280;57143;55.940;37.496;2022-07-10T00:27:31;98877.25;;;18.31;81.64
69848;BME280;57143;55.940;37.496;2022-07-10T00:29:58;98901.03;;;18.46;81.85
69848;BME280;57143;55.940;37.496;2022-07-10T00:32:27;98913.63;;;18.47;81.70
69848;BME280;57143;55.940;37.496;2022-07-10T00:34:54;98897.03;;;18.28;81.50
69848;BME280;57143;55.940;37.496;2022-07-10T00:37:21;98889.03;;;18.32;81.19
69848;BME280;57143;55.940;37.496;2022-07-10T00:39:48;98914.81;;;18.31;80.98
69848;BME280;57143;55.940;37.496;2022-07-10T00:42:15;98798.34;;;17.51;80.85
69848;BME280;57143;55.940;37.496;2022-07-10T00:44:43;98865.19;;;17.94;80.59
69848;BME280;57143;55.940;37.496;2022-07-10T00:47:11;98902.19;;;18.35;80.62
69848;BME280;57143;55.940;37.496;2022-07-10T00:49:41;98901.06;;;18.41;80.95
69848;BME280;57143;55.940;37.496;2022-07-10T00:52:10;98893.41;;;18.33;80.49
69848;BME280;57143;55.940;37.496;2022-07-10T00:54:39;98880.28;;;18.30;80.27
69848;BME280;57143;55.940;37.496;2022-07-10T00:57:08;98856.06;;;18.08;80.35
69848;BME280;57143;55.940;37.496;2022-07-10T00:59:35;98871.59;;;18.18;80.45
69848;BME280;57143;55.940;37.496;2022-07-10T01:02:04;98852.78;;;18.06;79.91
69848;BME280;57143;55.940;37.496;2022-07-10T01:04:32;98865.38;;;18.07;79.98
69848;BME280;57143;55.940;37.496;2022-07-10T01:07:00;98846.31;;;17.92;80.13
69848;BME280;57143;55.940;37.496;2022-07-10T01:09:27;98861.63;;;17.93;80.52
69848;BME280;57143;55.940;37.496;2022-07-10T01:11:56;98862.75;;;17.92;80.25
69848;BME280;57143;55.940;37.496;2022-07-10T01:14:25;98872.31;;;17.95;80.20
69848;BME280;57143;55.940;37.496;2022-07-10T01:16:52;98865.78;;;17.91;80.29
69848;BME280;57143;55.940;37.496;2022-07-10T01:19:19;98867.44;;;17.87;80.11
69848;BME280;57143;55.940;37.496;2022-07-10T01:21:48;98872.94;;;17.87;80.48
69848;BME280;57143;55.940;37.496;2022-07-10T01:24:15;98862.53;;;17.84;80.32
69848;BME280;57143;55.940;37.496;2022-07-10T01:26:42;98869.63;;;17.90;80.31
69848;BME280;57143;55.940;37.496;2022-07-10T01:29:10;98842.53;;;17.83;80.12
69848;BME280;57143;55.940;37.496;2022-07-10T01:31:38;98841.66;;;17.88;79.84
69848;BME280;57143;55.940;37.496;2022-07-10T01:34:07;98797.72;;;17.64;79.35
69848;BME280;57143;55.940;37.496;2022-07-10T01:36:35;98818.19;;;17.77;79.44
69848;BME280;57143;55.940;37.496;2022-07-10T01:39:04;98782.53;;;17.77;79.42
69848;BME280;57143;55.940;37.496;2022-07-10T01:41:31;98795.97;;;17.78;79.24
69848;BME280;57143;55.940;37.496;2022-07-10T01:43:58;98799.88;;;17.67;79.32
69848;BME280;57143;55.940;37.496;2022-07-10T01:46:26;98802.06;;;17.70;79.30
69848;BME280;57143;55.940;37.496;2022-07-10T01:48:52;98823.66;;;17.77;79.36
69848;BME280;57143;55.940;37.496;2022-07-10T01:51:20;98809.25;;;17.61;79.27
69848;BME280;57143;55.940;37.496;2022-07-10T01:53:48;98836.84;;;17.75;79.08
69848;BME280;57143;55.940;37.496;2022-07-10T01:56:17;98830.56;;;17.69;79.11
69848;BME280;57143;55.940;37.496;2022-07-10T01:58:44;98840.41;;;17.75;78.90
69848;BME280;57143;55.940;37.496;2022-07-10T02:01:11;98835.22;;;17.74;78.76
69848;BME280;57143;55.940;37.496;2022-07-10T02:03:39;98829.16;;;17.77;78.67
69848;BME280;57143;55.940;37.496;2022-07-10T02:06:23;98796.34;;;17.67;78.52
69848;BME280;57143;55.940;37.496;2022-07-10T02:08:50;98801.97;;;17.80;78.45
69848;BME280;57143;55.940;37.496;2022-07-10T02:11:18;98801.09;;;17.85;78.51
69848;BME280;57143;55.940;37.496;2022-07-10T02:13:46;98799.69;;;17.92;78.50
69848;BME280;57143;55.940;37.496;2022-07-10T02:16:13;98805.47;;;17.91;78.22
69848;BME280;57143;55.940;37.496;2022-07-10T02:18:40;98801.34;;;17.88;78.34
69848;BME280;57143;55.940;37.496;2022-07-10T02:21:07;98782.50;;;17.82;78.27
69848;BME280;57143;55.940;37.496;2022-07-10T02:23:34;98797.25;;;17.91;78.08
69848;BME280;57143;55.940;37.496;2022-07-10T02:26:02;98774.28;;;17.82;77.93
69848;BME280;57143;55.940;37.496;2022-07-10T02:28:30;98798.28;;;18.00;78.08
69848;BME280;57143;55.940;37.496;2022-07-10T02:30:57;98802.06;;;18.04;77.94
69848;BME280;57143;55.940;37.496;2022-07-10T02:33:25;98798.13;;;18.15;78.02
69848;BME280;57143;55.940;37.496;2022-07-10T02:35:52;98802.47;;;18.50;77.51
69848;BME280;57143;55.940;37.496;2022-07-10T02:38:19;98801.13;;;18.71;77.46
69848;BME280;57143;55.940;37.496;2022-07-10T02:40:46;98795.50;;;19.04;76.73
69848;BME280;57143;55.940;37.496;2022-07-10T02:43:13;98800.28;;;19.60;76.06
69848;BME280;57143;55.940;37.496;2022-07-10T02:45:41;98807.84;;;19.86;75.34
69848;BME280;57143;55.940;37.496;2022-07-10T02:48:08;98807.63;;;20.60;73.48
69848;BME280;57143;55.940;37.496;2022-07-10T02:50:35;98813.50;;;21.27;71.82
69848;BME280;57143;55.940;37.496;2022-07-10T02:53:03;98823.63;;;21.81;70.07
69848;BME280;57143;55.940;37.496;2022-07-10T02:55:30;98829.22;;;22.55;67.60
69848;BME280;57143;55.940;37.496;2022-07-10T02:57:58;98787.47;;;22.35;65.82
69848;BME280;57143;55.940;37.496;2022-07-10T03:00:25;98829.22;;;22.86;64.20
69848;BME280;57143;55.940;37.496;2022-07-10T03:02:54;98829.59;;;23.02;62.42
69848;BME280;57143;55.940;37.496;2022-07-10T03:05:22;98830.41;;;23.50;60.81
69848;BME280;57143;55.940;37.496;2022-07-10T03:07:49;98806.94;;;23.39;59.57
69848;BME280;57143;55.940;37.496;2022-07-10T03:10:16;98843.63;;;23.78;58.88
69848;BME280;57143;55.940;37.496;2022-07-10T03:12:43;98836.94;;;23.54;58.68
69848;BME280;57143;55.940;37.496;2022-07-10T03:15:11;98846.34;;;23.44;58.53
69848;BME280;57143;55.940;37.496;2022-07-10T03:17:38;98836.63;;;23.72;58.60
69848;BME280;57143;55.940;37.496;2022-07-10T03:20:08;98825.25;;;24.25;57.64
69848;BME280;57143;55.940;37.496;2022-07-10T03:22:35;98832.41;;;24.09;56.76
69848;BME280;57143;55.940;37.496;2022-07-10T03:25:03;98833.56;;;24.08;56.49
69848;BME280;57143;55.940;37.496;2022-07-10T03:27:30;98837.75;;;23.80;56.45
69848;BME280;57143;55.940;37.496;2022-07-10T03:29:57;98792.47;;;22.85;57.41
69848;BME280;57143;55.940;37.496;2022-07-10T03:32:24;98828.81;;;22.48;58.35
69848;BME280;57143;55.940;37.496;2022-07-10T03:34:51;98836.47;;;22.07;58.68
69848;BME280;57143;55.940;37.496;2022-07-10T03:37:20;98846.69;;;21.71;59.76
69848;BME280;57143;55.940;37.496;2022-07-10T03:39:47;98844.84;;;21.17;61.03
69848;BME280;57143;55.940;37.496;2022-07-10T03:42:14;98842.16;;;20.85;61.51
69848;BME280;57143;55.940;37.496;2022-07-10T03:44:41;98852.81;;;20.59;62.50
69848;BME280;57143;55.940;37.496;2022-07-10T03:47:08;98844.00;;;20.30;63.14
69848;BME280;57143;55.940;37.496;2022-07-10T03:49:35;98836.47;;;20.36;63.46
69848;BME280;57143;55.940;37.496;2022-07-10T03:52:04;98834.38;;;20.28;64.00
69848;BME280;57143;55.940;37.496;2022-07-10T03:54:33;98837.19;;;20.41;63.80
69848;BME280;57143;55.940;37.496;2022-07-10T03:57:00;98820.59;;;20.46;63.81
69848;BME280;57143;55.940;37.496;2022-07-10T03:59:45;98840.63;;;20.93;63.63
69848;BME280;57143;55.940;37.496;2022-07-10T04:02:12;98837.56;;;20.81;63.91
69848;BME280;57143;55.940;37.496;2022-07-10T04:04:39;98836.38;;;21.00;63.97
69848;BME280;57143;55.940;37.496;2022-07-10T04:07:06;98833.41;;;20.97;63.90
69848;BME280;57143;55.940;37.496;2022-07-10T04:09:34;98844.22;;;20.93;63.80
69848;BME280;57143;55.940;37.496;2022-07-10T04:12:01;98845.94;;;20.89;63.88
69848;BME280;57143;55.940;37.496;2022-07-10T04:14:28;98844.50;;;20.78;64.14
69848;BME280;57143;55.940;37.496;2022-07-10T04:16:55;98846.13;;;20.79;64.27
69848;BME280;57143;55.940;37.496;2022-07-10T04:19:22;98845.81;;;20.67;64.60
69848;BME280;57143;55.940;37.496;2022-07-10T04:21:49;98846.28;;;20.55;64.77
69848;BME280;57143;55.940;37.496;2022-07-10T04:24:16;98814.53;;;20.31;64.96
69848;BME280;57143;55.940;37.496;2022-07-10T04:26:44;98839.16;;;20.54;65.16
69848;BME280;57143;55.940;37.496;2022-07-10T04:29:11;98823.25;;;20.51;65.51
69848;BME280;57143;55.940;37.496;2022-07-10T04:31:38;98808.00;;;20.27;65.59
69848;BME280;57143;55.940;37.496;2022-07-10T04:34:05;98780.06;;;20.33;65.80
69848;BME280;57143;55.940;37.496;2022-07-10T04:36:33;98816.63;;;20.52;65.56
69848;BME280;57143;55.940;37.496;2022-07-10T04:39:00;98807.72;;;20.55;65.58
69848;BME280;57143;55.940;37.496;2022-07-10T04:41:27;98803.78;;;20.61;65.41
69848;BME280;57143;55.940;37.496;2022-07-10T04:43:55;98788.47;;;20.55;65.36
69848;BME280;57143;55.940;37.496;2022-07-10T04:46:22;98805.31;;;20.67;65.33
69848;BME280;57143;55.940;37.496;2022-07-10T04:48:49;98781.34;;;20.68;65.65
69848;BME280;57143;55.940;37.496;2022-07-10T04:51:17;98806.03;;;20.87;65.57
69848;BME280;57143;55.940;37.496;2022-07-10T04:53:44;98785.34;;;20.62;65.31
69848;BME280;57143;55.940;37.496;2022-07-10T04:56:11;98796.88;;;20.78;65.61
69848;BME280;57143;55.940;37.496;2022-07-10T04:58:38;98797.38;;;20.93;66.03
69848;BME280;57143;55.940;37.496;2022-07-10T05:01:07;98796.16;;;20.72;66.38
69848;BME280;57143;55.940;37.496;2022-07-10T05:03:34;98804.41;;;20.72;66.92
69848;BME280;57143;55.940;37.496;2022-07-10T05:06:01;98810.72;;;21.40;66.60
69848;BME280;57143;55.940;37.496;2022-07-10T05:08:28;98806.22;;;22.16;66.02
69848;BME280;57143;55.940;37.496;2022-07-10T05:10:55;98790.50;;;22.25;65.33
69848;BME280;57143;55.940;37.496;2022-07-10T05:13:22;98800.88;;;22.50;64.33
69848;BME280;57143;55.940;37.496;2022-07-10T05:15:49;98790.34;;;22.52;63.98
69848;BME280;57143;55.940;37.496;2022-07-10T05:18:18;98791.13;;;22.52;63.57
69848;BME280;57143;55.940;37.496;2022-07-10T05:20:45;98723.06;;;22.17;62.44
69848;BME280;57143;55.940;37.496;2022-07-10T05:23:13;98784.69;;;22.96;62.25
69848;BME280;57143;55.940;37.496;2022-07-10T05:25:40;98776.47;;;22.65;61.25
69848;BME280;57143;55.940;37.496;2022-07-10T05:28:07;98785.97;;;22.90;61.60
69848;BME280;57143;55.940;37.496;2022-07-10T05:30:34;98789.63;;;23.16;60.77
69848;BME280;57143;55.940;37.496;2022-07-10T05:33:01;98755.34;;;23.26;59.83
69848;BME280;57143;55.940;37.496;2022-07-10T05:35:30;98776.72;;;23.93;58.86
69848;BME280;57143;55.940;37.496;2022-07-10T05:37:57;98776.84;;;23.97;58.53
69848;BME280;57143;55.940;37.496;2022-07-10T05:40:24;98783.25;;;24.06;57.97
69848;BME280;57143;55.940;37.496;2022-07-10T05:42:51;98737.31;;;23.88;57.66
69848;BME280;57143;55.940;37.496;2022-07-10T05:45:18;98792.88;;;24.00;57.77
69848;BME280;57143;55.940;37.496;2022-07-10T05:47:45;98777.34;;;24.33;57.58
69848;BME280;57143;55.940;37.496;2022-07-10T05:50:12;98771.66;;;25.43;56.55
69848;BME280;57143;55.940;37.496;2022-07-10T05:52:41;98752.97;;;25.93;54.61
69848;BME280;57143;55.940;37.496;2022-07-10T05:55:08;98768.25;;;25.37;53.99
69848;BME280;57143;55.940;37.496;2022-07-10T05:57:35;98751.91;;;26.18;52.72
69848;BME280;57143;55.940;37.496;2022-07-10T06:00:04;98776.81;;;26.47;52.17
69848;BME280;57143;55.940;37.496;2022-07-10T06:02:31;98771.91;;;26.44;51.43
69848;BME280;57143;55.940;37.496;2022-07-10T06:04:59;98790.28;;;26.25;51.25
69848;BME280;57143;55.940;37.496;2022-07-10T06:07:26;98787.38;;;26.00;51.32
69848;BME280;57143;55.940;37.496;2022-07-10T06:09:56;98775.13;;;25.60;52.21
69848;BME280;57143;55.940;37.496;2022-07-10T06:12:23;98805.09;;;25.46;52.51
69848;BME280;57143;55.940;37.496;2022-07-10T06:14:50;98782.22;;;25.20;52.95
69848;BME280;57143;55.940;37.496;2022-07-10T06:17:17;98803.78;;;25.73;52.77
69848;BME280;57143;55.940;37.496;2022-07-10T06:19:44;98796.25;;;25.73;52.27
69848;BME280;57143;55.940;37.496;2022-07-10T06:22:11;98793.66;;;26.09;51.84
69848;BME280;57143;55.940;37.496;2022-07-10T06:24:57;98775.09;;;26.01;51.89
69848;BME280;57143;55.940;37.496;2022-07-10T06:27:25;98778.75;;;26.91;51.06
69848;BME280;57143;55.940;37.496;2022-07-10T06:29:52;98771.09;;;27.00;50.11
69848;BME280;57143;55.940;37.496;2022-07-10T06:32:19;98782.22;;;26.76;49.97
69848;BME280;57143;55.940;37.496;2022-07-10T06:34:46;98787.44;;;27.26;49.90
69848;BME280;57143;55.940;37.496;2022-07-10T06:37:13;98773.44;;;27.35;48.88
69848;BME280;57143;55.940;37.496;2022-07-10T06:39:40;98789.06;;;27.51;48.61
69848;BME280;57143;55.940;37.496;2022-07-10T06:42:08;98787.81;;;27.37;48.32
69848;BME280;57143;55.940;37.496;2022-07-10T06:44:35;98787.56;;;27.54;47.69
69848;BME280;57143;55.940;37.496;2022-07-10T06:47:03;98797.47;;;27.79;48.08
69848;BME280;57143;55.940;37.496;2022-07-10T06:49:49;98789.19;;;27.30;48.17
69848;BME280;57143;55.940;37.496;2022-07-10T06:52:16;98774.59;;;26.53;49.11
69848;BME280;57143;55.940;37.496;2022-07-10T06:54:43;98786.13;;;26.31;49.89
69848;BME280;57143;55.940;37.496;2022-07-10T06:57:12;98771.66;;;26.82;49.84
69848;BME280;57143;55.940;37.496;2022-07-10T06:59:39;98784.22;;;27.36;49.39
69848;BME280;57143;55.940;37.496;2022-07-10T07:02:06;98770.28;;;27.12;48.47
69848;BME280;57143;55.940;37.496;2022-07-10T07:04:34;98753.28;;;26.57;49.06
69848;BME280;57143;55.940;37.496;2022-07-10T07:07:02;98768.63;;;26.30;49.25
69848;BME280;57143;55.940;37.496;2022-07-10T07:09:29;98766.84;;;25.93;50.26
69848;BME280;57143;55.940;37.496;2022-07-10T07:11:56;98777.63;;;25.74;50.48
69848;BME280;57143;55.940;37.496;2022-07-10T07:14:24;98778.03;;;25.84;50.88
69848;BME280;57143;55.940;37.496;2022-07-10T07:16:52;98789.88;;;25.93;50.78
69848;BME280;57143;55.940;37.496;2022-07-10T07:19:26;98780.72;;;25.93;51.01
69848;BME280;57143;55.940;37.496;2022-07-10T07:22:20;98755.00;;;25.84;51.34
69848;BME280;57143;55.940;37.496;2022-07-10T07:25:05;98765.31;;;26.37;51.05
69848;BME280;57143;55.940;37.496;2022-07-10T07:27:33;98787.53;;;26.69;50.51
69848;BME280;57143;55.940;37.496;2022-07-10T07:30:06;98787.44;;;27.14;49.30
69848;BME280;57143;55.940;37.496;2022-07-10T07:32:34;98782.53;;;27.71;47.93
69848;BME280;57143;55.940;37.496;2022-07-10T07:35:01;98739.84;;;27.67;46.85
69848;BME280;57143;55.940;37.496;2022-07-10T07:37:35;98785.69;;;27.58;45.30
69848;BME280;57143;55.940;37.496;2022-07-10T07:40:03;98784.72;;;27.78;45.23
69848;BME280;57143;55.940;37.496;2022-07-10T07:42:31;98778.78;;;27.79;44.59
69848;BME280;57143;55.940;37.496;2022-07-10T07:44:58;98771.97;;;28.04;43.35
69848;BME280;57143;55.940;37.496;2022-07-10T07:47:26;98794.91;;;28.53;42.47
69848;BME280;57143;55.940;37.496;2022-07-10T07:49:53;98801.41;;;28.45;42.03
69848;BME280;57143;55.940;37.496;2022-07-10T07:52:20;98797.38;;;28.15;41.58
69848;BME280;57143;55.940;37.496;2022-07-10T07:54:48;98782.38;;;27.92;42.50
69848;BME280;57143;55.940;37.496;2022-07-10T07:57:16;98789.38;;;27.62;42.42
69848;BME280;57143;55.940;37.496;2022-07-10T07:59:44;98791.31;;;27.34;42.04
69848;BME280;57143;55.940;37.496;2022-07-10T08:02:11;98782.91;;;26.85;43.25
69848;BME280;57143;55.940;37.496;2022-07-10T08:04:40;98793.72;;;26.66;43.85
69848;BME280;57143;55.940;37.496;2022-07-10T08:07:07;98776.59;;;26.19;44.58
69848;BME280;57143;55.940;37.496;2022-07-10T08:09:34;98791.28;;;25.99;45.70
69848;BME280;57143;55.940;37.496;2022-07-10T08:12:01;98804.44;;;25.90;46.65
69848;BME280;57143;55.940;37.496;2022-07-10T08:14:28;98801.78;;;25.73;47.26
69848;BME280;57143;55.940;37.496;2022-07-10T08:16:55;98807.41;;;25.85;47.78
69848;BME280;57143;55.940;37.496;2022-07-10T08:19:22;98804.97;;;25.84;48.44
69848;BME280;57143;55.940;37.496;2022-07-10T08:21:51;98811.34;;;25.84;48.97
69848;BME280;57143;55.940;37.496;2022-07-10T08:24:18;98775.88;;;25.69;48.72
69848;BME280;57143;55.940;37.496;2022-07-10T08:26:45;98810.56;;;26.04;49.31
69848;BME280;57143;55.940;37.496;2022-07-10T08:29:12;98804.34;;;26.07;49.14
69848;BME280;57143;55.940;37.496;2022-07-10T08:31:40;98805.19;;;25.99;48.77
69848;BME280;57143;55.940;37.496;2022-07-10T08:34:07;98753.38;;;25.83;48.69
69848;BME280;57143;55.940;37.496;2022-07-10T08:36:34;98810.06;;;26.02;48.33
69848;BME280;57143;55.940;37.496;2022-07-10T08:39:03;98772.19;;;25.98;48.55
69848;BME280;57143;55.940;37.496;2022-07-10T08:41:31;98808.09;;;26.23;48.12
69848;BME280;57143;55.940;37.496;2022-07-10T08:44:00;98795.50;;;26.26;47.94
69848;BME280;57143;55.940;37.496;2022-07-10T08:46:28;98783.78;;;26.20;47.17
69848;BME280;57143;55.940;37.496;2022-07-10T08:48:59;98810.31;;;26.30;47.35
69848;BME280;57143;55.940;37.496;2022-07-10T08:51:35;98747.41;;;25.93;47.76
69848;BME280;57143;55.940;37.496;2022-07-10T08:54:04;98792.19;;;26.12;47.63
69848;BME280;57143;55.940;37.496;2022-07-10T08:56:31;98769.41;;;26.18;47.58
69848;BME280;57143;55.940;37.496;2022-07-10T08:59:01;98793.00;;;26.45;47.38
69848;BME280;57143;55.940;37.496;2022-07-10T09:01:28;98794.72;;;26.38;46.90
69848;BME280;57143;55.940;37.496;2022-07-10T09:03:56;98788.97;;;26.55;47.29
69848;BME280;57143;55.940;37.496;2022-07-10T09:06:23;98785.88;;;26.68;46.73
69848;BME280;57143;55.940;37.496;2022-07-10T09:09:01;98770.16;;;26.72;46.97
69848;BME280;57143;55.940;37.496;2022-07-10T09:11:30;98779.78;;;26.75;47.01
69848;BME280;57143;55.940;37.496;2022-07-10T09:13:59;98782.22;;;27.12;47.05
69848;BME280;57143;55.940;37.496;2022-07-10T09:16:29;98788.59;;;27.01;46.65
69848;BME280;57143;55.940;37.496;2022-07-10T09:18:57;98787.09;;;26.91;46.68
69848;BME280;57143;55.940;37.496;2022-07-10T09:21:41;98744.25;;;26.03;47.84
69848;BME280;57143;55.940;37.496;2022-07-10T09:24:08;98784.28;;;26.67;48.06
69848;BME280;57143;55.940;37.496;2022-07-10T09:26:38;98766.78;;;26.67;47.98
69848;BME280;57143;55.940;37.496;2022-07-10T09:29:06;98774.56;;;26.85;47.05
69848;BME280;57143;55.940;37.496;2022-07-10T09:31:48;98775.38;;;26.86;47.45
69848;BME280;57143;55.940;37.496;2022-07-10T09:34:15;98774.56;;;26.97;47.60
69848;BME280;57143;55.940;37.496;2022-07-10T09:36:43;98773.31;;;27.07;47.00
69848;BME280;57143;55.940;37.496;2022-07-10T09:39:09;98776.44;;;27.17;47.28
69848;BME280;57143;55.940;37.496;2022-07-10T09:41:38;98764.84;;;26.91;47.20
69848;BME280;57143;55.940;37.496;2022-07-10T09:44:06;98774.91;;;27.08;47.34
69848;BME280;57143;55.940;37.496;2022-07-10T09:46:35;98761.69;;;27.17;47.33
69848;BME280;57143;55.940;37.496;2022-07-10T09:49:10;98758.59;;;27.30;46.81
69848;BME280;57143;55.940;37.496;2022-07-10T09:51:42;98773.75;;;27.57;46.54
69848;BME280;57143;55.940;37.496;2022-07-10T09:54:10;98752.06;;;27.51;45.27
69848;BME280;57143;55.940;37.496;2022-07-10T09:56:43;98774.25;;;27.87;44.42
69848;BME280;57143;55.940;37.496;2022-07-10T09:59:13;98754.53;;;27.80;44.55
69848;BME280;57143;55.940;37.496;2022-07-10T10:01:45;98763.13;;;28.14;44.42
69848;BME280;57143;55.940;37.496;2022-07-10T10:04:12;98718.56;;;28.30;43.45
69848;BME280;57143;55.940;37.496;2022-07-10T10:06:40;98716.09;;;28.56;43.28
69848;BME280;57143;55.940;37.496;2022-07-10T10:09:12;98747.81;;;28.08;43.24
69848;BME280;57143;55.940;37.496;2022-07-10T10:11:44;98741.06;;;28.37;43.73
69848;BME280;57143;55.940;37.496;2022-07-10T10:14:12;98738.75;;;28.11;42.89
69848;BME280;57143;55.940;37.496;2022-07-10T10:16:43;98737.50;;;28.09;42.53
69848;BME280;57143;55.940;37.496;2022-07-10T10:19:12;98733.88;;;28.08;41.65
69848;BME280;57143;55.940;37.496;2022-07-10T10:21:59;98686.34;;;27.62;41.12
69848;BME280;57143;55.940;37.496;2022-07-10T10:24:31;98731.69;;;27.74;41.31
69848;BME280;57143;55.940;37.496;2022-07-10T10:27:01;98707.03;;;27.88;41.24
69848;BME280;57143;55.940;37.496;2022-07-10T10:29:31;98721.66;;;27.97;41.05
69848;BME280;57143;55.940;37.496;2022-07-10T10:31:59;98726.59;;;28.04;40.36
69848;BME280;57143;55.940;37.496;2022-07-10T10:34:39;98718.47;;;27.71;40.21
69848;BME280;57143;55.940;37.496;2022-07-10T10:37:35;98727.34;;;27.49;40.31
69848;BME280;57143;55.940;37.496;2022-07-10T10:40:04;98714.03;;;27.43;40.64
69848;BME280;57143;55.940;37.496;2022-07-10T10:42:35;98694.66;;;27.22;41.08
69848;BME280;57143;55.940;37.496;2022-07-10T10:45:24;98722.09;;;27.60;39.89
69848;BME280;57143;55.940;37.496;2022-07-10T10:48:01;98714.31;;;27.65;40.44
69848;BME280;57143;55.940;37.496;2022-07-10T10:50:39;98713.13;;;27.78;40.97
69848;BME280;57143;55.940;37.496;2022-07-10T10:53:16;98712.25;;;27.90;40.74
69848;BME280;57143;55.940;37.496;2022-07-10T10:56:21;98695.31;;;27.83;40.66
69848;BME280;57143;55.940;37.496;2022-07-10T10:58:48;98716.22;;;27.77;40.64
69848;BME280;57143;55.940;37.496;2022-07-10T11:01:28;98707.97;;;27.80;40.61
69848;BME280;57143;55.940;37.496;2022-07-10T11:04:16;98709.06;;;27.76;40.41
69848;BME280;57143;55.940;37.496;2022-07-10T11:06:45;98679.53;;;27.59;40.14
69848;BME280;57143;55.940;37.496;2022-07-10T11:09:24;98719.56;;;27.82;39.27
69848;BME280;57143;55.940;37.496;2022-07-10T11:12:05;98686.88;;;27.79;39.01
69848;BME280;57143;55.940;37.496;2022-07-10T11:14:34;98710.84;;;27.96;38.99
69848;BME280;57143;55.940;37.496;2022-07-10T11:17:03;98702.06;;;27.82;38.17
69848;BME280;57143;55.940;37.496;2022-07-10T11:19:32;98713.25;;;28.09;37.97
69848;BME280;57143;55.940;37.496;2022-07-10T11:25:11;98706.03;;;28.52;34.09
69848;BME280;57143;55.940;37.496;2022-07-10T11:27:58;98713.06;;;28.77;34.15
69848;BME280;57143;55.940;37.496;2022-07-10T11:30:43;98704.22;;;28.75;33.59
69848;BME280;57143;55.940;37.496;2022-07-10T11:33:10;98705.28;;;28.86;33.42
69848;BME280;57143;55.940;37.496;2022-07-10T11:35:38;98709.16;;;28.97;33.19
69848;BME280;57143;55.940;37.496;2022-07-10T11:38:06;98684.69;;;28.90;33.10
69848;BME280;57143;55.940;37.496;2022-07-10T11:40:37;98673.88;;;29.04;33.00
69848;BME280;57143;55.940;37.496;2022-07-10T11:43:04;98706.28;;;29.43;32.57
69848;BME280;57143;55.940;37.496;2022-07-10T11:45:34;98686.38;;;29.45;32.51
69848;BME280;57143;55.940;37.496;2022-07-10T11:48:03;98716.69;;;29.27;32.28
69848;BME280;57143;55.940;37.496;2022-07-10T11:50:35;98714.16;;;29.22;32.27
69848;BME280;57143;55.940;37.496;2022-07-10T11:53:03;98666.59;;;28.84;32.26
69848;BME280;57143;55.940;37.496;2022-07-10T11:55:30;98713.91;;;29.12;32.14
69848;BME280;57143;55.940;37.496;2022-07-10T11:58:14;98714.09;;;29.19;32.07
69848;BME280;57143;55.940;37.496;2022-07-10T12:00:42;98717.91;;;29.11;32.08
69848;BME280;57143;55.940;37.496;2022-07-10T12:03:18;98720.94;;;29.06;32.57
69848;BME280;57143;55.940;37.496;2022-07-10T12:05:46;98700.06;;;29.15;32.49
69848;BME280;57143;55.940;37.496;2022-07-10T12:08:14;98677.19;;;29.10;32.63
69848;BME280;57143;55.940;37.496;2022-07-10T12:10:41;98725.63;;;29.17;32.87
69848;BME280;57143;55.940;37.496;2022-07-10T12:13:09;98719.41;;;28.93;33.38
69848;BME280;57143;55.940;37.496;2022-07-10T12:15:40;98706.44;;;29.00;33.46
69848;BME280;57143;55.940;37.496;2022-07-10T12:18:09;98705.66;;;28.84;33.38
69848;BME280;57143;55.940;37.496;2022-07-10T12:20:42;98688.38;;;28.63;33.38
69848;BME280;57143;55.940;37.496;2022-07-10T12:23:11;98667.16;;;28.59;33.91
69848;BME280;57143;55.940;37.496;2022-07-10T12:25:41;98699.19;;;28.80;33.87
69848;BME280;57143;55.940;37.496;2022-07-10T12:28:08;98705.75;;;28.88;34.05
69848;BME280;57143;55.940;37.496;2022-07-10T12:30:41;98684.50;;;28.99;33.36
69848;BME280;57143;55.940;37.496;2022-07-10T12:33:10;98690.00;;;29.11;33.17
69848;BME280;57143;55.940;37.496;2022-07-10T12:35:49;98686.06;;;29.31;33.08
69848;BME280;57143;55.940;37.496;2022-07-10T12:38:18;98686.28;;;29.41;33.37
69848;BME280;57143;55.940;37.496;2022-07-10T12:40:45;98672.31;;;29.41;32.97
69848;BME280;57143;55.940;37.496;2022-07-10T12:43:12;98668.00;;;29.63;32.84
69848;BME280;57143;55.940;37.496;2022-07-10T12:45:41;98660.38;;;29.79;32.49
69848;BME280;57143;55.940;37.496;2022-07-10T12:48:21;98655.75;;;29.68;32.44
69848;BME280;57143;55.940;37.496;2022-07-10T12:50:49;98666.59;;;29.53;32.55
69848;BME280;57143;55.940;37.496;2022-07-10T12:53:16;98651.50;;;29.39;32.55
69848;BME280;57143;55.940;37.496;2022-07-10T12:55:43;98660.78;;;29.43;32.89
69848;BME280;57143;55.940;37.496;2022-07-10T12:58:12;98655.94;;;29.40;32.99
69848;BME280;57143;55.940;37.496;2022-07-10T13:00:45;98650.50;;;29.47;32.63
69848;BME280;57143;55.940;37.496;2022-07-10T13:03:18;98649.84;;;29.53;33.08